createdAt,value
2018-04-27T00:02:08.294Z,11.20
2018-04-27T00:04:35.770Z,11.19
2018-04-27T00:07:03.274Z,11.24
2018-04-27T00:09:30.721Z,11.21
2018-04-27T00:11:58.186Z,11.22
2018-04-27T00:14:25.700Z,11.26
2018-04-27T00:16:53.138Z,11.26
2018-04-27T00:19:20.902Z,11.25
2018-04-27T00:21:48.404Z,11.23
2018-04-27T00:24:16.135Z,11.28
2018-04-27T00:26:43.600Z,11.27
2018-04-27T00:29:11.067Z,11.33
2018-04-27T00:31:38.563Z,11.29
2018-04-27T00:34:06.043Z,11.31
2018-04-27T00:36:34.629Z,11.35
2018-04-27T00:39:02.114Z,11.31
2018-04-27T00:41:29.631Z,11.32
2018-04-27T00:43:57.090Z,11.32
2018-04-27T00:46:24.622Z,11.29
2018-04-27T00:48:52.114Z,11.26
2018-04-27T00:51:19.578Z,11.19
2018-04-27T00:53:47.068Z,11.17
2018-04-27T00:56:14.523Z,11.13
2018-04-27T00:58:42.047Z,11.11
2018-04-27T01:01:09.490Z,11.02
2018-04-27T01:03:37.002Z,11.01
2018-04-27T01:06:04.435Z,10.95
2018-04-27T01:08:31.911Z,10.91
2018-04-27T01:10:59.373Z,10.94
2018-04-27T01:13:26.851Z,10.88
2018-04-27T01:15:54.311Z,10.87
2018-04-27T01:18:21.891Z,10.87
2018-04-27T01:20:49.337Z,10.90
2018-04-27T01:23:16.858Z,10.90
2018-04-27T01:25:44.319Z,10.92
2018-04-27T01:28:11.807Z,10.89
2018-04-27T01:30:39.256Z,10.91
2018-04-27T01:33:06.752Z,10.94
2018-04-27T01:35:34.203Z,10.97
2018-04-27T01:38:01.646Z,10.91
2018-04-27T01:40:29.162Z,10.89
2018-04-27T01:42:56.630Z,10.88
2018-04-27T01:45:24.160Z,10.87
2018-04-27T01:47:51.690Z,10.82
2018-04-27T01:50:19.118Z,10.72
2018-04-27T01:52:46.617Z,10.67
2018-04-27T01:55:14.959Z,10.63
2018-04-27T01:57:42.452Z,10.64
2018-04-27T02:00:09.931Z,10.63
2018-04-27T02:02:37.427Z,10.62
2018-04-27T02:05:04.865Z,10.63
2018-04-27T02:07:32.363Z,10.64
2018-04-27T02:09:59.825Z,10.64
2018-04-27T02:12:27.290Z,10.65
2018-04-27T02:14:54.786Z,10.66
2018-04-27T02:17:22.311Z,10.69
2018-04-27T02:19:49.793Z,10.62
2018-04-27T02:22:17.257Z,10.60
2018-04-27T02:24:44.691Z,10.60
2018-04-27T02:27:12.219Z,10.62
2018-04-27T02:29:41.658Z,10.64
2018-04-27T02:32:09.088Z,10.58
2018-04-27T02:34:36.527Z,10.54
2018-04-27T02:37:04.496Z,10.53
2018-04-27T02:39:32.060Z,10.48
2018-04-27T02:41:59.516Z,10.40
2018-04-27T02:44:27.590Z,10.38
2018-04-27T02:46:55.068Z,10.29
2018-04-27T02:49:22.525Z,10.25
2018-04-27T02:51:51.075Z,10.20
2018-04-27T02:54:18.543Z,10.15
2018-04-27T02:56:47.100Z,10.11
2018-04-27T02:59:14.540Z,10.08
2018-04-27T03:01:42.034Z,10.08
2018-04-27T03:04:10.065Z,10.01
2018-04-27T03:06:37.584Z,9.98
2018-04-27T03:09:05.055Z,9.96
2018-04-27T03:11:32.500Z,9.97
2018-04-27T03:13:59.957Z,9.96
2018-04-27T03:16:27.439Z,9.97
2018-04-27T03:18:54.922Z,9.94
2018-04-27T03:21:22.458Z,9.95
2018-04-27T03:23:50.033Z,10.00
2018-04-27T03:26:17.519Z,10.01
2018-04-27T03:28:44.989Z,10.00
2018-04-27T03:31:12.467Z,10.01
2018-04-27T03:33:39.920Z,10.03
2018-04-27T03:36:07.499Z,10.02
2018-04-27T03:38:35.126Z,9.99
2018-04-27T03:41:02.629Z,9.98
2018-04-27T03:43:30.063Z,9.92
2018-04-27T03:45:57.558Z,9.89
2018-04-27T03:48:25.024Z,9.87
2018-04-27T03:50:52.547Z,9.87
2018-04-27T03:53:19.991Z,9.87
2018-04-27T03:55:47.485Z,9.81
2018-04-27T03:58:14.962Z,9.88
2018-04-27T04:01:03.361Z,9.87
2018-04-27T04:03:42.550Z,9.82
2018-04-27T04:06:09.988Z,9.83
2018-04-27T04:08:37.515Z,9.82
2018-04-27T04:11:05.921Z,9.83
2018-04-27T04:13:33.404Z,9.79
2018-04-27T04:16:00.853Z,9.75
2018-04-27T04:18:28.285Z,9.78
2018-04-27T04:20:55.751Z,9.81
2018-04-27T04:23:23.203Z,9.80
2018-04-27T04:25:50.643Z,9.78
2018-04-27T04:28:18.101Z,9.76
2018-04-27T04:30:45.570Z,9.75
2018-04-27T04:33:13.095Z,9.75
2018-04-27T04:35:40.569Z,9.74
2018-04-27T04:38:08.023Z,9.68
2018-04-27T04:40:35.501Z,9.74
2018-04-27T04:43:03.009Z,9.73
2018-04-27T04:45:30.547Z,9.67
2018-04-27T04:47:58.008Z,9.68
2018-04-27T04:50:25.490Z,9.69
2018-04-27T04:52:52.965Z,9.70
2018-04-27T04:55:20.408Z,9.66
2018-04-27T04:57:47.875Z,9.65
2018-04-27T05:00:15.348Z,9.65
2018-04-27T05:02:42.858Z,9.62
2018-04-27T05:05:10.374Z,9.65
2018-04-27T05:07:37.853Z,9.70
2018-04-27T05:10:05.289Z,9.68
2018-04-27T05:12:32.783Z,9.70
2018-04-27T05:15:00.271Z,9.77
2018-04-27T05:17:27.823Z,9.80
2018-04-27T05:19:55.624Z,9.75
2018-04-27T05:22:23.076Z,9.74
2018-04-27T05:24:50.623Z,9.69
2018-04-27T05:27:18.655Z,9.69
2018-04-27T05:29:46.147Z,9.72
2018-04-27T05:32:13.622Z,9.73
2018-04-27T05:34:41.069Z,9.76
2018-04-27T05:37:08.521Z,9.75
2018-04-27T05:39:35.982Z,9.74
2018-04-27T05:42:03.429Z,9.77
2018-04-27T05:44:30.870Z,9.82
2018-04-27T05:46:58.393Z,9.87
2018-04-27T05:49:25.851Z,9.87
2018-04-27T05:51:53.518Z,9.95
2018-04-27T05:54:21.041Z,10.01
2018-04-27T05:56:48.528Z,10.09
2018-04-27T05:59:16.128Z,10.19
2018-04-27T06:01:43.736Z,10.33
2018-04-27T06:04:14.125Z,10.42
2018-04-27T06:06:41.634Z,10.52
2018-04-27T06:09:09.135Z,10.63
2018-04-27T06:11:36.601Z,10.68
2018-04-27T06:14:04.055Z,10.72
2018-04-27T06:16:31.505Z,10.80
2018-04-27T06:18:58.974Z,10.82
2018-04-27T06:21:31.459Z,10.84
2018-04-27T06:23:59.012Z,10.84
2018-04-27T06:26:26.738Z,10.90
2018-04-27T06:28:54.284Z,10.94
2018-04-27T06:31:21.815Z,10.96
2018-04-27T06:33:49.497Z,10.99
2018-04-27T06:36:17.076Z,11.03
2018-04-27T06:38:44.539Z,11.09
2018-04-27T06:41:12.050Z,11.16
2018-04-27T06:43:39.534Z,11.25
2018-04-27T06:46:07.110Z,11.33
2018-04-27T06:48:34.678Z,11.42
2018-04-27T06:51:02.498Z,11.47
2018-04-27T06:53:30.017Z,11.51
2018-04-27T06:55:57.492Z,11.59
2018-04-27T06:58:25.526Z,11.66
2018-04-27T07:00:53.028Z,11.71
2018-04-27T07:03:20.576Z,11.79
2018-04-27T07:05:48.125Z,11.89
2018-04-27T07:08:15.923Z,12.04
2018-04-27T07:10:43.506Z,12.19
2018-04-27T07:13:11.017Z,12.27
2018-04-27T07:15:38.494Z,12.34
2018-04-27T07:18:05.955Z,12.39
2018-04-27T07:20:34.548Z,12.43
2018-04-27T07:23:02.052Z,12.49
2018-04-27T07:25:29.540Z,12.61
2018-04-27T07:27:57.097Z,12.58
2018-04-27T07:30:24.620Z,12.54
2018-04-27T07:32:52.075Z,12.51
2018-04-27T07:35:19.535Z,12.51
2018-04-27T07:37:47.105Z,12.61
2018-04-27T07:40:14.692Z,12.80
2018-04-27T07:42:42.186Z,12.87
2018-04-27T07:45:09.688Z,12.84
2018-04-27T07:47:37.584Z,12.83
2018-04-27T07:50:05.141Z,12.81
2018-04-27T07:52:32.600Z,12.85
2018-04-27T07:55:00.048Z,12.82
2018-04-27T07:57:27.616Z,12.81
2018-04-27T07:59:55.080Z,12.80
2018-04-27T08:02:22.606Z,12.78
2018-04-27T08:04:50.026Z,12.84
2018-04-27T08:07:17.532Z,12.92
2018-04-27T08:09:45.042Z,12.95
2018-04-27T08:12:12.478Z,13.00
2018-04-27T08:14:39.937Z,13.04
2018-04-27T08:17:07.434Z,13.07
2018-04-27T08:19:34.919Z,13.08
2018-04-27T08:22:02.413Z,13.23
2018-04-27T08:24:29.906Z,13.26
2018-04-27T08:26:57.368Z,13.29
2018-04-27T08:29:24.830Z,13.40
2018-04-27T08:31:52.279Z,13.47
2018-04-27T08:34:19.724Z,13.56
2018-04-27T08:36:47.185Z,13.58
2018-04-27T08:39:14.637Z,13.67
2018-04-27T08:41:42.207Z,13.77
2018-04-27T08:44:09.657Z,13.85
2018-04-27T08:46:37.130Z,13.91
2018-04-27T08:49:04.628Z,14.03
2018-04-27T08:51:32.099Z,14.12
2018-04-27T08:53:59.668Z,14.12
2018-04-27T08:56:27.226Z,14.21
2018-04-27T08:58:54.908Z,14.38
2018-04-27T09:01:22.512Z,14.47
2018-04-27T09:03:50.007Z,14.58
2018-04-27T09:06:17.461Z,14.77
2018-04-27T09:08:45.047Z,14.82
2018-04-27T09:11:12.738Z,14.87
2018-04-27T09:13:40.239Z,14.93
2018-04-27T09:16:07.953Z,15.08
2018-04-27T09:18:35.452Z,15.08
2018-04-27T09:21:03.040Z,15.12
2018-04-27T09:23:30.496Z,15.10
2018-04-27T09:25:57.935Z,15.20
2018-04-27T09:28:25.476Z,15.23
2018-04-27T09:30:52.964Z,15.27
2018-04-27T09:33:21.400Z,15.41
2018-04-27T09:35:48.956Z,15.56
2018-04-27T09:38:16.452Z,15.73
2018-04-27T09:40:43.904Z,15.77
2018-04-27T09:43:11.363Z,15.76
2018-04-27T09:45:38.858Z,15.84
2018-04-27T09:48:06.357Z,15.96
2018-04-27T09:50:33.810Z,16.01
2018-04-27T09:53:01.396Z,16.27
2018-04-27T09:55:28.899Z,16.38
2018-04-27T09:57:56.388Z,16.40
2018-04-27T10:00:23.846Z,16.48
2018-04-27T10:02:51.333Z,16.47
2018-04-27T10:05:18.796Z,16.62
2018-04-27T10:07:46.252Z,16.70
2018-04-27T10:10:14.567Z,16.85
2018-04-27T10:12:42.066Z,16.99
2018-04-27T10:15:09.514Z,17.08
2018-04-27T10:17:37.026Z,17.28
2018-04-27T10:20:04.528Z,17.30
2018-04-27T10:22:31.966Z,17.41
2018-04-27T10:24:59.423Z,17.46
2018-04-27T10:27:26.852Z,17.55
2018-04-27T10:29:54.331Z,17.70
2018-04-27T10:32:21.787Z,17.70
2018-04-27T10:34:49.229Z,17.88
2018-04-27T10:37:16.688Z,18.20
2018-04-27T10:39:44.202Z,18.43
2018-04-27T10:42:11.670Z,18.50
2018-04-27T10:44:39.193Z,18.51
2018-04-27T10:47:06.659Z,18.50
2018-04-27T10:49:34.204Z,18.41
2018-04-27T10:52:02.364Z,18.38
2018-04-27T10:54:30.458Z,18.33
2018-04-27T10:56:58.567Z,18.32
2018-04-27T10:59:26.087Z,18.49
2018-04-27T11:01:53.569Z,18.72
2018-04-27T11:04:21.052Z,19.00
2018-04-27T11:06:48.678Z,19.20
2018-04-27T11:09:16.136Z,19.11
2018-04-27T11:11:43.799Z,19.03
2018-04-27T11:14:11.388Z,19.09
2018-04-27T11:16:38.875Z,19.07
2018-04-27T11:19:06.444Z,19.10
2018-04-27T11:21:33.882Z,19.23
2018-04-27T11:24:01.422Z,19.49
2018-04-27T11:26:28.932Z,19.41
2018-04-27T11:28:56.434Z,19.50
2018-04-27T11:31:23.928Z,19.76
2018-04-27T11:33:52.218Z,19.96
2018-04-27T11:36:19.698Z,20.26
2018-04-27T11:38:48.428Z,20.56
2018-04-27T11:41:16.377Z,20.68
2018-04-27T11:43:43.788Z,20.67
2018-04-27T11:46:11.354Z,20.65
2018-04-27T11:48:39.096Z,20.86
2018-04-27T11:51:07.444Z,20.99
2018-04-27T11:53:34.946Z,20.85
2018-04-27T11:56:02.442Z,20.77
2018-04-27T11:58:29.946Z,20.87
2018-04-27T12:00:57.399Z,20.99
2018-04-27T12:03:24.876Z,21.17
2018-04-27T12:05:52.361Z,21.04
2018-04-27T12:08:19.889Z,20.97
2018-04-27T12:10:47.335Z,20.88
2018-04-27T12:13:15.152Z,21.08
2018-04-27T12:15:42.651Z,21.25
2018-04-27T12:18:10.153Z,21.47
2018-04-27T12:20:37.615Z,21.90
2018-04-27T12:23:05.083Z,22.16
2018-04-27T12:25:32.593Z,22.27
2018-04-27T12:28:00.027Z,22.60
2018-04-27T12:30:27.660Z,22.86
2018-04-27T12:32:55.122Z,22.71
2018-04-27T12:35:22.643Z,22.66
2018-04-27T12:37:50.095Z,22.82
2018-04-27T12:40:17.655Z,22.78
2018-04-27T12:42:45.183Z,22.91
2018-04-27T12:45:13.121Z,23.08
2018-04-27T12:47:40.605Z,23.29
2018-04-27T12:50:08.337Z,23.42
2018-04-27T12:52:35.796Z,23.60
2018-04-27T12:55:03.250Z,23.36
2018-04-27T12:57:30.832Z,23.09
2018-04-27T12:59:58.352Z,23.16
2018-04-27T13:02:25.821Z,23.31
2018-04-27T13:04:53.333Z,23.67
2018-04-27T13:07:20.925Z,23.32
2018-04-27T13:09:48.611Z,22.78
2018-04-27T13:12:16.205Z,22.73
2018-04-27T13:14:43.728Z,22.93
2018-04-27T13:17:11.349Z,22.98
2018-04-27T13:19:38.807Z,22.89
2018-04-27T13:22:06.630Z,23.03
2018-04-27T13:24:34.220Z,23.02
2018-04-27T13:27:01.702Z,22.96
2018-04-27T13:29:29.217Z,22.91
2018-04-27T13:31:56.667Z,22.76
2018-04-27T13:34:24.219Z,22.69
2018-04-27T13:36:51.842Z,22.56
2018-04-27T13:39:19.455Z,22.57
2018-04-27T13:41:46.901Z,22.42
2018-04-27T13:44:14.335Z,22.52
2018-04-27T13:46:42.531Z,22.63
2018-04-27T13:49:10.327Z,22.77
2018-04-27T13:51:37.853Z,22.80
2018-04-27T13:54:05.363Z,22.78
2018-04-27T13:56:32.799Z,22.73
2018-04-27T13:59:01.055Z,22.84
2018-04-27T14:01:33.451Z,22.96
2018-04-27T14:04:01.186Z,22.95
2018-04-27T14:06:28.771Z,22.71
2018-04-27T14:08:56.317Z,22.82
2018-04-27T14:11:28.159Z,22.78
2018-04-27T14:13:57.303Z,22.75
2018-04-27T14:16:25.628Z,22.73
2018-04-27T14:18:53.961Z,22.87
2018-04-27T14:21:23.029Z,22.96
2018-04-27T14:23:50.556Z,23.04
2018-04-27T14:26:18.096Z,23.11
2018-04-27T14:28:46.349Z,23.08
2018-04-27T14:31:18.865Z,22.80
2018-04-27T14:33:46.958Z,22.42
2018-04-27T14:36:14.624Z,22.06
2018-04-27T14:38:42.220Z,21.84
2018-04-27T14:41:10.073Z,21.63
2018-04-27T14:43:38.356Z,21.50
2018-04-27T14:46:07.298Z,21.42
2018-04-27T14:48:35.467Z,21.22
2018-04-27T14:51:03.293Z,21.10
2018-04-27T14:53:31.068Z,21.04
2018-04-27T14:55:58.766Z,21.12
2018-04-27T14:58:26.533Z,21.06
2018-04-27T15:00:53.981Z,20.96
2018-04-27T15:03:22.385Z,20.95
2018-04-27T15:05:49.935Z,20.90
2018-04-27T15:08:17.430Z,20.74
2018-04-27T15:10:45.052Z,20.68
2018-04-27T15:13:15.414Z,20.59
2018-04-27T15:15:43.003Z,20.51
2018-04-27T15:18:10.607Z,20.22
2018-04-27T15:20:38.164Z,20.15
2018-04-27T15:23:06.359Z,20.13
2018-04-27T15:25:34.013Z,20.03
2018-04-27T15:28:04.672Z,20.02
2018-04-27T15:30:32.222Z,19.90
2018-04-27T15:32:59.908Z,19.90
2018-04-27T15:35:27.499Z,19.83
2018-04-27T15:37:55.056Z,19.84
2018-04-27T15:40:23.528Z,19.85
2018-04-27T15:42:51.062Z,19.83
2018-04-27T15:45:18.554Z,19.77
2018-04-27T15:47:46.012Z,19.71
2018-04-27T15:50:13.470Z,19.67
2018-04-27T15:52:40.991Z,19.65
2018-04-27T15:55:08.660Z,19.67
2018-04-27T15:57:36.462Z,19.64
2018-04-27T16:00:03.939Z,19.60
2018-04-27T16:02:31.399Z,19.60
2018-04-27T16:04:58.927Z,19.58
2018-04-27T16:07:26.394Z,19.55
2018-04-27T16:09:53.852Z,19.50
2018-04-27T16:12:21.339Z,19.51
2018-04-27T16:14:48.830Z,19.52
2018-04-27T16:17:16.370Z,19.42
2018-04-27T16:19:43.796Z,19.39
2018-04-27T16:22:11.549Z,19.30
2018-04-27T16:24:39.050Z,19.27
2018-04-27T16:27:06.494Z,19.34
2018-04-27T16:29:33.938Z,19.28
2018-04-27T16:32:02.420Z,19.29
2018-04-27T16:34:29.914Z,19.32
2018-04-27T16:36:57.445Z,19.27
2018-04-27T16:39:24.948Z,19.29
2018-04-27T16:41:52.557Z,19.29
2018-04-27T16:44:20.052Z,19.28
2018-04-27T16:46:47.544Z,19.26
2018-04-27T16:49:15.058Z,19.27
2018-04-27T16:51:42.534Z,19.27
2018-04-27T16:54:10.020Z,19.26
2018-04-27T16:56:37.535Z,19.29
2018-04-27T16:59:05.006Z,19.26
2018-04-27T17:01:32.619Z,19.27
2018-04-27T17:04:00.345Z,19.27
2018-04-27T17:06:27.847Z,19.24
2018-04-27T17:08:55.353Z,19.21
2018-04-27T17:11:22.830Z,19.11
2018-04-27T17:13:50.302Z,19.08
2018-04-27T17:16:17.816Z,19.09
2018-04-27T17:18:45.343Z,19.03
2018-04-27T17:21:12.875Z,18.99
2018-04-27T17:23:40.400Z,18.99
2018-04-27T17:26:07.855Z,19.09
2018-04-27T17:28:35.399Z,19.11
2018-04-27T17:31:22.068Z,19.07
2018-04-27T17:33:49.618Z,19.04
2018-04-27T17:36:17.102Z,18.96
2018-04-27T17:38:44.536Z,18.94
2018-04-27T17:41:12.036Z,18.88
2018-04-27T17:43:39.527Z,18.85
2018-04-27T17:46:06.970Z,18.84
2018-04-27T17:48:34.436Z,18.78
2018-04-27T17:51:01.909Z,18.74
2018-04-27T17:53:29.390Z,18.74
2018-04-27T17:55:56.891Z,18.68
2018-04-27T17:58:24.366Z,18.66
2018-04-27T18:00:51.865Z,18.66
2018-04-27T18:03:19.301Z,18.61
2018-04-27T18:05:46.764Z,18.59
2018-04-27T18:08:14.209Z,18.56
2018-04-27T18:10:41.656Z,18.54
2018-04-27T18:13:09.152Z,18.50
2018-04-27T18:15:36.736Z,18.46
2018-04-27T18:18:04.870Z,18.43
2018-04-27T18:20:32.274Z,18.38
2018-04-27T18:22:59.821Z,18.43
2018-04-27T18:25:27.232Z,18.35
2018-04-27T18:27:54.690Z,18.33
2018-04-27T18:30:22.157Z,18.24
2018-04-27T18:32:49.608Z,18.18
2018-04-27T18:35:17.065Z,18.17
2018-04-27T18:37:44.520Z,18.14
2018-04-27T18:40:12.326Z,18.03
2018-04-27T18:42:40.059Z,18.03
2018-04-27T18:45:07.509Z,18.01
2018-04-27T18:47:35.100Z,17.94
2018-04-27T18:50:02.594Z,17.93
2018-04-27T18:52:30.082Z,17.88
2018-04-27T18:54:57.711Z,17.78
2018-04-27T18:57:25.194Z,17.77
2018-04-27T18:59:52.658Z,17.69
2018-04-27T19:02:21.038Z,17.69
2018-04-27T19:04:48.504Z,17.68
2018-04-27T19:07:15.950Z,17.59
2018-04-27T19:09:43.449Z,17.59
2018-04-27T19:12:10.975Z,17.58
2018-04-27T19:14:38.464Z,17.58
2018-04-27T19:17:05.939Z,17.50
2018-04-27T19:19:33.663Z,17.45
2018-04-27T19:22:01.138Z,17.36
2018-04-27T19:24:28.631Z,17.35
2018-04-27T19:26:56.095Z,17.33
2018-04-27T19:29:23.604Z,17.27
2018-04-27T19:31:51.117Z,17.29
2018-04-27T19:34:18.567Z,17.25
2018-04-27T19:36:46.036Z,17.19
2018-04-27T19:39:13.490Z,17.14
2018-04-27T19:41:40.991Z,17.13
2018-04-27T19:44:08.474Z,17.14
2018-04-27T19:46:36.012Z,17.10
2018-04-27T19:49:03.476Z,17.02
2018-04-27T19:51:30.947Z,16.96
2018-04-27T19:53:58.471Z,16.94
2018-04-27T19:56:26.010Z,16.93
2018-04-27T19:58:53.509Z,16.87
2018-04-27T20:01:20.973Z,16.86
2018-04-27T20:03:48.425Z,16.83
2018-04-27T20:06:15.888Z,16.83
2018-04-27T20:08:43.488Z,16.77
2018-04-27T20:11:11.099Z,16.74
2018-04-27T20:13:40.282Z,16.73
2018-04-27T20:16:07.765Z,16.70
2018-04-27T20:18:35.316Z,16.67
2018-04-27T20:21:02.706Z,16.70
2018-04-27T20:23:36.049Z,16.64
2018-04-27T20:26:05.440Z,16.62
2018-04-27T20:28:33.679Z,16.59
2018-04-27T20:31:01.142Z,16.56
2018-04-27T20:33:28.635Z,16.50
2018-04-27T20:35:59.907Z,16.52
2018-04-27T20:38:28.159Z,16.45
2018-04-27T20:40:55.635Z,16.40
2018-04-27T20:43:25.545Z,16.37
2018-04-27T20:45:56.022Z,16.35
2018-04-27T20:48:26.368Z,16.33
2018-04-27T20:51:01.956Z,16.29
2018-04-27T20:53:31.931Z,16.27
2018-04-27T20:55:59.433Z,16.26
2018-04-27T20:58:27.947Z,16.26
2018-04-27T21:00:55.387Z,16.26
2018-04-27T21:03:22.841Z,16.23
2018-04-27T21:05:50.400Z,16.22
2018-04-27T21:08:17.859Z,16.22
2018-04-27T21:10:45.447Z,16.19
2018-04-27T21:13:12.917Z,16.20
2018-04-27T21:15:40.361Z,16.17
2018-04-27T21:18:08.556Z,16.13
2018-04-27T21:20:36.023Z,16.14
2018-04-27T21:23:03.467Z,16.11
2018-04-27T21:25:41.383Z,16.09
2018-04-27T21:28:14.213Z,16.05
2018-04-27T21:30:44.359Z,16.03
2018-04-27T21:33:11.894Z,16.00
2018-04-27T21:35:43.109Z,16.00
2018-04-27T21:38:23.367Z,15.94
2018-04-27T21:40:51.220Z,15.90
2018-04-27T21:43:18.810Z,15.90
2018-04-27T21:45:46.344Z,15.91
2018-04-27T21:48:14.231Z,15.90
2018-04-27T21:50:42.018Z,15.88
2018-04-27T21:53:09.535Z,15.88
2018-04-27T21:55:37.018Z,15.85
2018-04-27T21:58:07.019Z,15.79
2018-04-27T22:00:34.535Z,15.78
2018-04-27T22:03:02.764Z,15.72
2018-04-27T22:08:36.966Z,15.64
2018-04-27T22:14:04.102Z,15.54
2018-04-27T22:19:23.269Z,15.53
2018-04-27T22:21:51.649Z,15.51
2018-04-27T22:24:19.162Z,15.51
2018-04-27T22:26:46.629Z,15.49
2018-04-27T22:29:28.334Z,15.42
2018-04-27T22:31:55.801Z,15.39
2018-04-27T22:34:31.941Z,15.39
2018-04-27T22:36:59.403Z,15.35
2018-04-27T22:42:30.300Z,15.32
2018-04-27T22:45:18.139Z,15.30
2018-04-27T22:47:48.950Z,15.29
2018-04-27T22:50:22.230Z,15.27
2018-04-27T22:52:50.450Z,15.25
2018-04-27T22:55:18.942Z,15.23
2018-04-27T22:58:02.124Z,15.21
2018-04-27T23:00:44.442Z,15.18
2018-04-27T23:03:12.725Z,15.13
2018-04-27T23:05:40.168Z,15.15
2018-04-27T23:08:07.676Z,15.14
2018-04-27T23:13:51.610Z,15.08
2018-04-27T23:16:22.672Z,15.09
2018-04-27T23:18:50.112Z,15.12
2018-04-27T23:24:09.900Z,15.12
2018-04-27T23:26:37.311Z,15.13
2018-04-27T23:29:05.250Z,15.10
2018-04-27T23:31:32.730Z,15.05
2018-04-27T23:34:00.190Z,15.08
2018-04-27T23:36:27.632Z,15.05
2018-04-27T23:38:55.074Z,15.02
2018-04-27T23:41:22.514Z,14.99
2018-04-27T23:43:50.098Z,14.98
2018-04-27T23:46:26.770Z,14.95
2018-04-27T23:48:54.268Z,14.90
2018-04-27T23:51:21.786Z,14.87
2018-04-27T23:53:50.038Z,14.78
2018-04-27T23:56:17.486Z,14.75
2018-04-27T23:58:44.926Z,14.76
